Aérodrome :
LOGIN :

S'inscrire | Disclaimer

   EN    FR    IT 

 










Légende :    VFR   VFR Marginal   IFR   IFR Intensif   IFR Très Intensif
Visi : 
Plafond : 
>= 8 km
>= 3000ft
5 à 8 km
1000 à 3000 ft
1500m à 5 km
500 à 1000 ft
800 à 1500m
200 à 500 ft
< 800m
< 200 ft
Symboles :   Orages  Brouillard  Fortes neiges  Fortes précipitations  Vent > 20 kt
SIGMETs :   Divers  Orages  Givrage  Turbulence  Onde Orograph.  Cendres Volcan.






- Altitude de l'aérodrome : 1768 ft


LEHC - Huesca Pirineos

DERNIER METAR :
  • 270300Z AUTO 32003KT 290V350 CAVOK M00/M00 Q1022

METARs EXPIRÉS :
  • 270230Z AUTO VRB02KT CAVOK M00/M00 Q1022
  • 270200Z AUTO 01002KT CAVOK 01/01 Q1022
  • 270130Z AUTO 00000KT CAVOK 02/02 Q1022
  • 270100Z AUTO VRB02KT CAVOK 03/02 Q1022
  • 270030Z AUTO 26004KT CAVOK 03/02 Q1022
  • 270000Z AUTO VRB01KT CAVOK 02/01 Q1022

TAF TAF LEHC
Valide du 27 à 03h jusqu'au 28 à 03h UTC


270200Z 2703/2803 VRB03KT 9999 FEW015 TX09/2714Z TN01/2707Z
TEMPO 2703/2710 3000 BR BKN007
PROB30
TEMPO 2703/2708 0200 FG VV001



MET'MAP, la Météo Aéronautique d'un coup d'oeil ! - Copyright ORBIFLY Décembre 2007 - Disclaimer

ORBIFLY MET'MAP TEAM :

Programmation & Développement : Alexandra Zaïnal
Sur une idée originale de : Baudouin d'Aumeries
Assistance à la programmation : Marc-Olivier Méhu
Soutien technique & logistique : Manuel Goepfert

Contact : metmap@orbifly.com




SOURCES & CREDITS :

   NOAA